EGJB

Guernsey Airport

Saint Peter Port, Guernsey
METAR EGJB 211020Z VRB02KT 9999 FEW020 BKN028 06/03 Q1025
Observed Flight Rules
Jan-21 @ 10:20 UTC (15 minutes ago) Marginal Visual Flight Rules
Wind Visibility Clouds
Variable at 2 knots 10,000+ meters
  • Few at 2,000' AGL
  • Broken at 2,800' AGL
Temperatures Readings
Current 6°C / 43°F
Dewpoint 3°C / 37°F
Humidity 81%
Altimeter 30.27" Hg
Pressure 1024.92 hPa
Elevation 102
METAR EGJB 211020Z VRB02KT 9999 FEW020 BKN028 06/03 Q1025
Observed Flight Rules
Jan-21 @ 10:20 UTC
(15 minutes ago)
MVFR
Wind Visibility
Variable at 2 knots 10,000+ meters
Clouds
  • Few at 2,000' AGL
  • Broken at 2,800' AGL
Temperature Dewpoint
6°C / 43°F 3°C / 37°F
Humidity Altimeter Pressure
81% 30.27" Hg 1024.92 hPa